sensor_id;sensor_type;location;lat;lon;timestamp;P1;durP1;ratioP1;P2;durP2;ratioP2
6135;SDS011;24008;42.664;23.372;2022-11-15T00:01:07;75.37;;;42.57;;
6135;SDS011;24008;42.664;23.372;2022-11-15T00:03:34;74.63;;;42.10;;
6135;SDS011;24008;42.664;23.372;2022-11-15T00:06:03;74.93;;;42.80;;
6135;SDS011;24008;42.664;23.372;2022-11-15T00:08:30;78.90;;;44.67;;
6135;SDS011;24008;42.664;23.372;2022-11-15T00:10:58;76.70;;;41.63;;
6135;SDS011;24008;42.664;23.372;2022-11-15T00:13:26;84.47;;;46.23;;
6135;SDS011;24008;42.664;23.372;2022-11-15T00:15:56;93.90;;;49.30;;
6135;SDS011;24008;42.664;23.372;2022-11-15T00:18:23;85.90;;;46.20;;
6135;SDS011;24008;42.664;23.372;2022-11-15T00:20:50;100.47;;;48.50;;
6135;SDS011;24008;42.664;23.372;2022-11-15T00:23:18;81.70;;;45.30;;
6135;SDS011;24008;42.664;23.372;2022-11-15T00:25:45;95.30;;;48.20;;
6135;SDS011;24008;42.664;23.372;2022-11-15T00:28:11;98.87;;;48.60;;
6135;SDS011;24008;42.664;23.372;2022-11-15T00:30:38;91.83;;;47.03;;
6135;SDS011;24008;42.664;23.372;2022-11-15T00:33:05;89.63;;;48.07;;
6135;SDS011;24008;42.664;23.372;2022-11-15T00:35:32;94.13;;;49.43;;
6135;SDS011;24008;42.664;23.372;2022-11-15T00:38:00;99.13;;;48.53;;
6135;SDS011;24008;42.664;23.372;2022-11-15T00:40:29;87.00;;;48.00;;
6135;SDS011;24008;42.664;23.372;2022-11-15T00:42:56;94.57;;;49.60;;
6135;SDS011;24008;42.664;23.372;2022-11-15T00:45:23;93.30;;;48.47;;
6135;SDS011;24008;42.664;23.372;2022-11-15T00:47:51;90.07;;;47.73;;
6135;SDS011;24008;42.664;23.372;2022-11-15T00:50:18;95.57;;;47.47;;
6135;SDS011;24008;42.664;23.372;2022-11-15T00:52:45;82.47;;;46.53;;
6135;SDS011;24008;42.664;23.372;2022-11-15T00:55:13;97.47;;;49.33;;
6135;SDS011;24008;42.664;23.372;2022-11-15T00:57:42;82.33;;;46.07;;
6135;SDS011;24008;42.664;23.372;2022-11-15T01:00:09;86.93;;;47.43;;
6135;SDS011;24008;42.664;23.372;2022-11-15T01:02:37;84.53;;;47.93;;
6135;SDS011;24008;42.664;23.372;2022-11-15T01:05:04;81.67;;;45.50;;
6135;SDS011;24008;42.664;23.372;2022-11-15T01:07:32;82.67;;;45.07;;
6135;SDS011;24008;42.664;23.372;2022-11-15T01:09:59;88.27;;;46.03;;
6135;SDS011;24008;42.664;23.372;2022-11-15T01:12:25;78.57;;;43.60;;
6135;SDS011;24008;42.664;23.372;2022-11-15T01:14:54;82.50;;;44.27;;
6135;SDS011;24008;42.664;23.372;2022-11-15T01:17:20;86.47;;;45.03;;
6135;SDS011;24008;42.664;23.372;2022-11-15T01:19:47;83.60;;;42.20;;
6135;SDS011;24008;42.664;23.372;2022-11-15T01:22:14;86.53;;;44.87;;
6135;SDS011;24008;42.664;23.372;2022-11-15T01:24:41;79.20;;;41.43;;
6135;SDS011;24008;42.664;23.372;2022-11-15T01:27:08;88.30;;;44.83;;
6135;SDS011;24008;42.664;23.372;2022-11-15T01:29:35;82.17;;;43.07;;
6135;SDS011;24008;42.664;23.372;2022-11-15T01:32:03;83.87;;;45.33;;
6135;SDS011;24008;42.664;23.372;2022-11-15T01:34:30;77.90;;;42.23;;
6135;SDS011;24008;42.664;23.372;2022-11-15T01:36:57;77.53;;;42.63;;
6135;SDS011;24008;42.664;23.372;2022-11-15T01:39:23;79.00;;;42.40;;
6135;SDS011;24008;42.664;23.372;2022-11-15T01:41:51;84.50;;;44.20;;
6135;SDS011;24008;42.664;23.372;2022-11-15T01:47:10;82.00;;;43.50;;
6135;SDS011;24008;42.664;23.372;2022-11-15T01:49:41;95.93;;;48.43;;
6135;SDS011;24008;42.664;23.372;2022-11-15T01:52:15;90.47;;;47.37;;
6135;SDS011;24008;42.664;23.372;2022-11-15T01:54:45;87.73;;;46.30;;
6135;SDS011;24008;42.664;23.372;2022-11-15T01:57:13;91.40;;;47.10;;
6135;SDS011;24008;42.664;23.372;2022-11-15T01:59:40;82.77;;;45.97;;
6135;SDS011;24008;42.664;23.372;2022-11-15T02:02:10;88.80;;;46.30;;
6135;SDS011;24008;42.664;23.372;2022-11-15T02:04:40;92.07;;;47.40;;
6135;SDS011;24008;42.664;23.372;2022-11-15T02:07:08;95.33;;;48.40;;
6135;SDS011;24008;42.664;23.372;2022-11-15T02:09:37;92.13;;;47.70;;
6135;SDS011;24008;42.664;23.372;2022-11-15T02:12:04;89.70;;;47.97;;
6135;SDS011;24008;42.664;23.372;2022-11-15T02:14:33;86.60;;;46.43;;
6135;SDS011;24008;42.664;23.372;2022-11-15T02:17:04;86.03;;;46.73;;
6135;SDS011;24008;42.664;23.372;2022-11-15T02:19:52;87.77;;;44.73;;
6135;SDS011;24008;42.664;23.372;2022-11-15T02:22:55;98.20;;;55.00;;
6135;SDS011;24008;42.664;23.372;2022-11-15T02:25:49;87.50;;;47.17;;
6135;SDS011;24008;42.664;23.372;2022-11-15T02:28:44;87.07;;;46.50;;
6135;SDS011;24008;42.664;23.372;2022-11-15T02:31:24;83.50;;;44.27;;
6135;SDS011;24008;42.664;23.372;2022-11-15T02:33:59;83.33;;;45.00;;
6135;SDS011;24008;42.664;23.372;2022-11-15T02:36:33;82.63;;;42.37;;
6135;SDS011;24008;42.664;23.372;2022-11-15T02:39:07;89.00;;;44.40;;
6135;SDS011;24008;42.664;23.372;2022-11-15T02:41:40;83.30;;;43.30;;
6135;SDS011;24008;42.664;23.372;2022-11-15T02:44:23;90.00;;;47.83;;
6135;SDS011;24008;42.664;23.372;2022-11-15T02:46:57;91.93;;;44.90;;
6135;SDS011;24008;42.664;23.372;2022-11-15T02:49:42;82.87;;;42.67;;
6135;SDS011;24008;42.664;23.372;2022-11-15T02:52:14;87.23;;;45.17;;
6135;SDS011;24008;42.664;23.372;2022-11-15T02:54:42;78.20;;;42.60;;
6135;SDS011;24008;42.664;23.372;2022-11-15T02:57:11;86.97;;;44.53;;
6135;SDS011;24008;42.664;23.372;2022-11-15T02:59:48;83.17;;;43.63;;
6135;SDS011;24008;42.664;23.372;2022-11-15T03:02:41;93.97;;;47.07;;
6135;SDS011;24008;42.664;23.372;2022-11-15T03:05:23;109.27;;;53.53;;
6135;SDS011;24008;42.664;23.372;2022-11-15T03:08:00;99.73;;;49.03;;
6135;SDS011;24008;42.664;23.372;2022-11-15T03:10:36;99.23;;;50.90;;
6135;SDS011;24008;42.664;23.372;2022-11-15T03:13:11;90.63;;;45.10;;
6135;SDS011;24008;42.664;23.372;2022-11-15T03:15:47;92.60;;;50.23;;
6135;SDS011;24008;42.664;23.372;2022-11-15T03:18:22;94.33;;;46.23;;
6135;SDS011;24008;42.664;23.372;2022-11-15T03:20:54;84.43;;;45.43;;
6135;SDS011;24008;42.664;23.372;2022-11-15T03:23:24;88.60;;;46.53;;
6135;SDS011;24008;42.664;23.372;2022-11-15T03:25:55;90.33;;;47.77;;
6135;SDS011;24008;42.664;23.372;2022-11-15T03:28:25;111.87;;;55.97;;
6135;SDS011;24008;42.664;23.372;2022-11-15T03:30:58;111.40;;;56.53;;
6135;SDS011;24008;42.664;23.372;2022-11-15T03:33:49;118.83;;;59.53;;
6135;SDS011;24008;42.664;23.372;2022-11-15T03:36:19;131.27;;;62.83;;
6135;SDS011;24008;42.664;23.372;2022-11-15T03:38:49;118.00;;;58.27;;
6135;SDS011;24008;42.664;23.372;2022-11-15T03:41:21;115.53;;;57.73;;
6135;SDS011;24008;42.664;23.372;2022-11-15T03:43:52;125.57;;;61.00;;
6135;SDS011;24008;42.664;23.372;2022-11-15T03:46:24;137.30;;;63.97;;
6135;SDS011;24008;42.664;23.372;2022-11-15T03:48:56;133.57;;;61.17;;
6135;SDS011;24008;42.664;23.372;2022-11-15T03:51:30;117.83;;;58.87;;
6135;SDS011;24008;42.664;23.372;2022-11-15T03:53:57;131.30;;;62.23;;
6135;SDS011;24008;42.664;23.372;2022-11-15T03:56:24;130.87;;;62.13;;
6135;SDS011;24008;42.664;23.372;2022-11-15T03:58:50;139.87;;;66.40;;
6135;SDS011;24008;42.664;23.372;2022-11-15T04:01:17;132.27;;;63.17;;
6135;SDS011;24008;42.664;23.372;2022-11-15T04:03:44;133.40;;;63.50;;
6135;SDS011;24008;42.664;23.372;2022-11-15T04:06:12;135.40;;;65.80;;
6135;SDS011;24008;42.664;23.372;2022-11-15T04:08:39;135.33;;;65.07;;
6135;SDS011;24008;42.664;23.372;2022-11-15T04:11:06;134.40;;;64.57;;
6135;SDS011;24008;42.664;23.372;2022-11-15T04:13:33;133.03;;;64.47;;
6135;SDS011;24008;42.664;23.372;2022-11-15T04:15:59;128.57;;;63.13;;
6135;SDS011;24008;42.664;23.372;2022-11-15T04:18:26;129.50;;;63.47;;
6135;SDS011;24008;42.664;23.372;2022-11-15T04:20:53;131.27;;;63.47;;
6135;SDS011;24008;42.664;23.372;2022-11-15T04:23:39;124.00;;;60.87;;
6135;SDS011;24008;42.664;23.372;2022-11-15T04:26:23;115.70;;;58.13;;
6135;SDS011;24008;42.664;23.372;2022-11-15T04:28:50;122.33;;;60.27;;
6135;SDS011;24008;42.664;23.372;2022-11-15T04:31:34;84.33;;;45.47;;
6135;SDS011;24008;42.664;23.372;2022-11-15T04:34:01;90.03;;;47.00;;
6135;SDS011;24008;42.664;23.372;2022-11-15T04:36:28;92.77;;;48.20;;
6135;SDS011;24008;42.664;23.372;2022-11-15T04:39:13;101.50;;;49.53;;
6135;SDS011;24008;42.664;23.372;2022-11-15T04:41:40;149.07;;;53.80;;
6135;SDS011;24008;42.664;23.372;2022-11-15T04:44:07;104.87;;;51.10;;
6135;SDS011;24008;42.664;23.372;2022-11-15T04:46:34;105.77;;;51.73;;
6135;SDS011;24008;42.664;23.372;2022-11-15T04:49:01;109.53;;;52.80;;
6135;SDS011;24008;42.664;23.372;2022-11-15T04:51:28;118.77;;;56.07;;
6135;SDS011;24008;42.664;23.372;2022-11-15T04:53:55;119.33;;;60.27;;
6135;SDS011;24008;42.664;23.372;2022-11-15T04:56:23;129.50;;;57.43;;
6135;SDS011;24008;42.664;23.372;2022-11-15T04:58:49;117.00;;;56.70;;
6135;SDS011;24008;42.664;23.372;2022-11-15T05:01:26;121.70;;;55.70;;
6135;SDS011;24008;42.664;23.372;2022-11-15T05:03:53;118.87;;;51.80;;
6135;SDS011;24008;42.664;23.372;2022-11-15T05:06:37;124.33;;;53.30;;
6135;SDS011;24008;42.664;23.372;2022-11-15T05:09:04;123.47;;;54.10;;
6135;SDS011;24008;42.664;23.372;2022-11-15T05:11:32;126.30;;;54.43;;
6135;SDS011;24008;42.664;23.372;2022-11-15T05:13:59;130.77;;;53.90;;
6135;SDS011;24008;42.664;23.372;2022-11-15T05:16:26;156.53;;;53.73;;
6135;SDS011;24008;42.664;23.372;2022-11-15T05:18:53;182.47;;;58.90;;
6135;SDS011;24008;42.664;23.372;2022-11-15T05:21:20;225.17;;;58.37;;
6135;SDS011;24008;42.664;23.372;2022-11-15T05:23:47;273.80;;;59.53;;
6135;SDS011;24008;42.664;23.372;2022-11-15T05:26:15;307.57;;;61.93;;
6135;SDS011;24008;42.664;23.372;2022-11-15T05:28:44;353.93;;;77.80;;
6135;SDS011;24008;42.664;23.372;2022-11-15T05:31:11;316.57;;;56.87;;
6135;SDS011;24008;42.664;23.372;2022-11-15T05:33:40;234.70;;;56.90;;
6135;SDS011;24008;42.664;23.372;2022-11-15T05:36:13;226.57;;;50.17;;
6135;SDS011;24008;42.664;23.372;2022-11-15T05:38:45;196.93;;;49.17;;
6135;SDS011;24008;42.664;23.372;2022-11-15T05:41:12;165.13;;;48.63;;
6135;SDS011;24008;42.664;23.372;2022-11-15T05:43:39;203.77;;;50.77;;
6135;SDS011;24008;42.664;23.372;2022-11-15T05:46:09;178.50;;;51.00;;
6135;SDS011;24008;42.664;23.372;2022-11-15T05:48:36;231.70;;;58.03;;
6135;SDS011;24008;42.664;23.372;2022-11-15T05:51:07;158.27;;;49.67;;
6135;SDS011;24008;42.664;23.372;2022-11-15T05:53:34;153.90;;;49.57;;
6135;SDS011;24008;42.664;23.372;2022-11-15T05:56:03;96.17;;;35.60;;
6135;SDS011;24008;42.664;23.372;2022-11-15T05:58:30;75.57;;;31.53;;
6135;SDS011;24008;42.664;23.372;2022-11-15T06:00:58;91.47;;;33.70;;
6135;SDS011;24008;42.664;23.372;2022-11-15T06:03:27;71.87;;;30.30;;
6135;SDS011;24008;42.664;23.372;2022-11-15T06:05:54;71.80;;;33.60;;
6135;SDS011;24008;42.664;23.372;2022-11-15T06:08:22;65.77;;;30.73;;
6135;SDS011;24008;42.664;23.372;2022-11-15T06:10:49;56.77;;;26.40;;
6135;SDS011;24008;42.664;23.372;2022-11-15T06:13:16;60.93;;;26.67;;
6135;SDS011;24008;42.664;23.372;2022-11-15T06:15:43;61.97;;;27.57;;
6135;SDS011;24008;42.664;23.372;2022-11-15T06:18:10;53.33;;;26.03;;
6135;SDS011;24008;42.664;23.372;2022-11-15T06:20:38;60.63;;;28.17;;
6135;SDS011;24008;42.664;23.372;2022-11-15T06:23:05;59.60;;;27.83;;
6135;SDS011;24008;42.664;23.372;2022-11-15T06:25:32;49.30;;;24.93;;
6135;SDS011;24008;42.664;23.372;2022-11-15T06:27:59;52.07;;;24.60;;
6135;SDS011;24008;42.664;23.372;2022-11-15T06:30:29;46.80;;;24.57;;
6135;SDS011;24008;42.664;23.372;2022-11-15T06:33:02;51.57;;;25.97;;
6135;SDS011;24008;42.664;23.372;2022-11-15T06:35:32;51.43;;;26.57;;
6135;SDS011;24008;42.664;23.372;2022-11-15T06:38:05;50.80;;;25.87;;
6135;SDS011;24008;42.664;23.372;2022-11-15T06:40:34;50.53;;;26.50;;
6135;SDS011;24008;42.664;23.372;2022-11-15T06:43:01;54.27;;;27.30;;
6135;SDS011;24008;42.664;23.372;2022-11-15T06:45:28;52.97;;;28.20;;
6135;SDS011;24008;42.664;23.372;2022-11-15T06:47:56;51.37;;;27.83;;
6135;SDS011;24008;42.664;23.372;2022-11-15T06:50:23;54.87;;;28.53;;
6135;SDS011;24008;42.664;23.372;2022-11-15T06:52:50;57.77;;;31.03;;
6135;SDS011;24008;42.664;23.372;2022-11-15T06:55:18;60.87;;;28.87;;
6135;SDS011;24008;42.664;23.372;2022-11-15T06:57:48;61.53;;;28.77;;
6135;SDS011;24008;42.664;23.372;2022-11-15T07:00:17;61.10;;;28.90;;
6135;SDS011;24008;42.664;23.372;2022-11-15T07:02:45;58.83;;;27.23;;
6135;SDS011;24008;42.664;23.372;2022-11-15T07:05:13;48.50;;;26.40;;
6135;SDS011;24008;42.664;23.372;2022-11-15T07:07:40;59.70;;;26.77;;
6135;SDS011;24008;42.664;23.372;2022-11-15T07:10:08;50.63;;;27.50;;
6135;SDS011;24008;42.664;23.372;2022-11-15T07:12:36;51.73;;;27.37;;
6135;SDS011;24008;42.664;23.372;2022-11-15T07:15:03;58.00;;;29.87;;
6135;SDS011;24008;42.664;23.372;2022-11-15T07:17:31;51.53;;;28.07;;
6135;SDS011;24008;42.664;23.372;2022-11-15T07:19:58;62.10;;;31.03;;
6135;SDS011;24008;42.664;23.372;2022-11-15T07:22:25;58.03;;;29.43;;
6135;SDS011;24008;42.664;23.372;2022-11-15T07:24:51;55.97;;;28.53;;
6135;SDS011;24008;42.664;23.372;2022-11-15T07:27:18;56.23;;;30.37;;
6135;SDS011;24008;42.664;23.372;2022-11-15T07:29:47;59.27;;;31.17;;
6135;SDS011;24008;42.664;23.372;2022-11-15T07:32:13;51.17;;;28.47;;
6135;SDS011;24008;42.664;23.372;2022-11-15T07:34:40;52.97;;;29.13;;
6135;SDS011;24008;42.664;23.372;2022-11-15T07:37:07;56.87;;;31.30;;
6135;SDS011;24008;42.664;23.372;2022-11-15T07:39:34;64.20;;;34.00;;
6135;SDS011;24008;42.664;23.372;2022-11-15T07:42:01;67.70;;;33.83;;
6135;SDS011;24008;42.664;23.372;2022-11-15T07:44:46;76.40;;;35.77;;
6135;SDS011;24008;42.664;23.372;2022-11-15T07:47:13;71.57;;;35.30;;
6135;SDS011;24008;42.664;23.372;2022-11-15T07:49:40;73.97;;;34.93;;
6135;SDS011;24008;42.664;23.372;2022-11-15T07:52:07;71.70;;;34.70;;
6135;SDS011;24008;42.664;23.372;2022-11-15T07:54:34;69.00;;;35.37;;
6135;SDS011;24008;42.664;23.372;2022-11-15T07:57:00;70.30;;;35.03;;
6135;SDS011;24008;42.664;23.372;2022-11-15T07:59:27;73.63;;;37.87;;
6135;SDS011;24008;42.664;23.372;2022-11-15T08:01:55;79.93;;;39.43;;
6135;SDS011;24008;42.664;23.372;2022-11-15T08:04:22;83.77;;;39.37;;
6135;SDS011;24008;42.664;23.372;2022-11-15T08:06:49;84.67;;;38.90;;
6135;SDS011;24008;42.664;23.372;2022-11-15T08:09:16;80.93;;;39.97;;
6135;SDS011;24008;42.664;23.372;2022-11-15T08:11:43;78.40;;;40.07;;
6135;SDS011;24008;42.664;23.372;2022-11-15T08:14:09;88.37;;;42.20;;
6135;SDS011;24008;42.664;23.372;2022-11-15T08:16:36;75.53;;;36.73;;
6135;SDS011;24008;42.664;23.372;2022-11-15T08:19:04;70.43;;;37.13;;
6135;SDS011;24008;42.664;23.372;2022-11-15T08:21:31;75.00;;;38.60;;
6135;SDS011;24008;42.664;23.372;2022-11-15T08:23:58;74.27;;;38.43;;
6135;SDS011;24008;42.664;23.372;2022-11-15T08:26:25;79.07;;;39.03;;
6135;SDS011;24008;42.664;23.372;2022-11-15T08:28:54;78.43;;;39.90;;
6135;SDS011;24008;42.664;23.372;2022-11-15T08:31:20;74.63;;;38.33;;
6135;SDS011;24008;42.664;23.372;2022-11-15T08:33:47;75.77;;;38.20;;
6135;SDS011;24008;42.664;23.372;2022-11-15T08:36:16;77.20;;;38.77;;
6135;SDS011;24008;42.664;23.372;2022-11-15T08:38:43;76.50;;;39.23;;
6135;SDS011;24008;42.664;23.372;2022-11-15T08:41:11;77.27;;;39.53;;
6135;SDS011;24008;42.664;23.372;2022-11-15T08:43:42;75.67;;;38.73;;
6135;SDS011;24008;42.664;23.372;2022-11-15T08:46:10;78.30;;;39.83;;
6135;SDS011;24008;42.664;23.372;2022-11-15T08:48:38;77.80;;;39.63;;
6135;SDS011;24008;42.664;23.372;2022-11-15T08:51:05;82.23;;;40.87;;
6135;SDS011;24008;42.664;23.372;2022-11-15T08:53:34;80.67;;;39.90;;
6135;SDS011;24008;42.664;23.372;2022-11-15T08:56:01;75.47;;;40.57;;
6135;SDS011;24008;42.664;23.372;2022-11-15T08:58:29;86.13;;;42.20;;
6135;SDS011;24008;42.664;23.372;2022-11-15T09:00:55;82.07;;;42.40;;
6135;SDS011;24008;42.664;23.372;2022-11-15T09:03:22;93.70;;;44.47;;
6135;SDS011;24008;42.664;23.372;2022-11-15T09:05:53;90.40;;;45.40;;
6135;SDS011;24008;42.664;23.372;2022-11-15T09:08:20;90.13;;;44.23;;
6135;SDS011;24008;42.664;23.372;2022-11-15T09:10:48;92.13;;;45.40;;
6135;SDS011;24008;42.664;23.372;2022-11-15T09:13:15;87.97;;;44.57;;
6135;SDS011;24008;42.664;23.372;2022-11-15T09:15:42;90.50;;;43.87;;
6135;SDS011;24008;42.664;23.372;2022-11-15T09:18:09;95.67;;;46.73;;
6135;SDS011;24008;42.664;23.372;2022-11-15T09:20:36;93.13;;;44.47;;
6135;SDS011;24008;42.664;23.372;2022-11-15T09:23:03;89.50;;;45.83;;
6135;SDS011;24008;42.664;23.372;2022-11-15T09:25:30;83.57;;;42.03;;
6135;SDS011;24008;42.664;23.372;2022-11-15T09:27:59;80.73;;;41.93;;
6135;SDS011;24008;42.664;23.372;2022-11-15T09:30:26;93.70;;;44.53;;
6135;SDS011;24008;42.664;23.372;2022-11-15T09:32:53;92.83;;;45.33;;
6135;SDS011;24008;42.664;23.372;2022-11-15T09:35:20;89.70;;;44.53;;
6135;SDS011;24008;42.664;23.372;2022-11-15T09:37:47;94.83;;;45.63;;
6135;SDS011;24008;42.664;23.372;2022-11-15T09:40:14;89.67;;;44.77;;
6135;SDS011;24008;42.664;23.372;2022-11-15T09:42:51;95.57;;;47.53;;
6135;SDS011;24008;42.664;23.372;2022-11-15T09:45:30;93.80;;;46.57;;
6135;SDS011;24008;42.664;23.372;2022-11-15T09:48:08;98.53;;;48.03;;
6135;SDS011;24008;42.664;23.372;2022-11-15T09:50:51;94.20;;;46.00;;
6135;SDS011;24008;42.664;23.372;2022-11-15T09:53:25;94.77;;;46.03;;
6135;SDS011;24008;42.664;23.372;2022-11-15T09:55:57;100.70;;;48.33;;
6135;SDS011;24008;42.664;23.372;2022-11-15T09:58:26;94.97;;;46.80;;
6135;SDS011;24008;42.664;23.372;2022-11-15T10:01:04;96.73;;;46.30;;
6135;SDS011;24008;42.664;23.372;2022-11-15T10:03:37;95.50;;;47.20;;
6135;SDS011;24008;42.664;23.372;2022-11-15T10:06:08;90.17;;;47.63;;
6135;SDS011;24008;42.664;23.372;2022-11-15T10:08:45;91.80;;;45.87;;
6135;SDS011;24008;42.664;23.372;2022-11-15T10:11:18;90.10;;;47.43;;
6135;SDS011;24008;42.664;23.372;2022-11-15T10:13:47;93.00;;;46.40;;
6135;SDS011;24008;42.664;23.372;2022-11-15T10:16:35;93.13;;;46.50;;
6135;SDS011;24008;42.664;23.372;2022-11-15T10:19:16;92.03;;;46.83;;
6135;SDS011;24008;42.664;23.372;2022-11-15T10:21:52;88.67;;;46.20;;
6135;SDS011;24008;42.664;23.372;2022-11-15T10:24:32;89.47;;;47.53;;
6135;SDS011;24008;42.664;23.372;2022-11-15T10:27:03;95.67;;;47.83;;
6135;SDS011;24008;42.664;23.372;2022-11-15T10:29:36;96.73;;;47.63;;
6135;SDS011;24008;42.664;23.372;2022-11-15T10:32:10;95.23;;;48.50;;
6135;SDS011;24008;42.664;23.372;2022-11-15T10:34:38;98.57;;;48.50;;
6135;SDS011;24008;42.664;23.372;2022-11-15T10:37:05;105.83;;;51.80;;
6135;SDS011;24008;42.664;23.372;2022-11-15T10:39:32;95.57;;;48.53;;
6135;SDS011;24008;42.664;23.372;2022-11-15T10:42:04;106.27;;;52.07;;
6135;SDS011;24008;42.664;23.372;2022-11-15T10:44:43;110.13;;;50.50;;
6135;SDS011;24008;42.664;23.372;2022-11-15T10:47:25;108.77;;;51.03;;
6135;SDS011;24008;42.664;23.372;2022-11-15T10:49:59;110.50;;;50.87;;
6135;SDS011;24008;42.664;23.372;2022-11-15T10:52:29;104.03;;;50.37;;
6135;SDS011;24008;42.664;23.372;2022-11-15T10:54:59;113.17;;;51.53;;
6135;SDS011;24008;42.664;23.372;2022-11-15T10:57:30;112.33;;;52.27;;
6135;SDS011;24008;42.664;23.372;2022-11-15T11:00:00;118.83;;;52.60;;
6135;SDS011;24008;42.664;23.372;2022-11-15T11:02:32;123.90;;;53.23;;
6135;SDS011;24008;42.664;23.372;2022-11-15T11:05:03;113.30;;;52.10;;
6135;SDS011;24008;42.664;23.372;2022-11-15T11:07:32;119.87;;;53.70;;
6135;SDS011;24008;42.664;23.372;2022-11-15T11:10:00;118.47;;;49.70;;
6135;SDS011;24008;42.664;23.372;2022-11-15T11:12:29;113.90;;;53.20;;
6135;SDS011;24008;42.664;23.372;2022-11-15T11:14:58;111.50;;;51.93;;
6135;SDS011;24008;42.664;23.372;2022-11-15T11:17:34;108.87;;;48.27;;
6135;SDS011;24008;42.664;23.372;2022-11-15T11:20:14;114.53;;;52.17;;
6135;SDS011;24008;42.664;23.372;2022-11-15T11:22:52;106.20;;;49.43;;
6135;SDS011;24008;42.664;23.372;2022-11-15T11:25:29;107.30;;;48.73;;
6135;SDS011;24008;42.664;23.372;2022-11-15T11:28:12;115.43;;;52.03;;
6135;SDS011;24008;42.664;23.372;2022-11-15T11:30:54;110.23;;;51.10;;
6135;SDS011;24008;42.664;23.372;2022-11-15T11:33:29;110.40;;;50.40;;
6135;SDS011;24008;42.664;23.372;2022-11-15T11:36:03;105.80;;;49.03;;
6135;SDS011;24008;42.664;23.372;2022-11-15T11:38:49;107.80;;;49.27;;
6135;SDS011;24008;42.664;23.372;2022-11-15T11:44:15;116.57;;;49.87;;
6135;SDS011;24008;42.664;23.372;2022-11-15T11:46:52;115.20;;;52.03;;
6135;SDS011;24008;42.664;23.372;2022-11-15T11:49:25;99.60;;;48.03;;
6135;SDS011;24008;42.664;23.372;2022-11-15T11:51:59;98.97;;;47.40;;
6135;SDS011;24008;42.664;23.372;2022-11-15T11:54:33;104.07;;;49.63;;
6135;SDS011;24008;42.664;23.372;2022-11-15T11:57:11;102.00;;;48.83;;
6135;SDS011;24008;42.664;23.372;2022-11-15T11:59:44;105.27;;;50.60;;
6135;SDS011;24008;42.664;23.372;2022-11-15T12:02:18;96.03;;;47.17;;
6135;SDS011;24008;42.664;23.372;2022-11-15T12:04:56;90.50;;;46.13;;
6135;SDS011;24008;42.664;23.372;2022-11-15T12:07:30;93.33;;;46.83;;
6135;SDS011;24008;42.664;23.372;2022-11-15T12:10:02;99.30;;;48.30;;
6135;SDS011;24008;42.664;23.372;2022-11-15T12:12:32;93.40;;;46.10;;
6135;SDS011;24008;42.664;23.372;2022-11-15T12:15:10;90.60;;;46.47;;
6135;SDS011;24008;42.664;23.372;2022-11-15T12:17:42;93.73;;;44.73;;
6135;SDS011;24008;42.664;23.372;2022-11-15T12:20:17;96.93;;;46.70;;
6135;SDS011;24008;42.664;23.372;2022-11-15T12:22:47;94.87;;;46.40;;
6135;SDS011;24008;42.664;23.372;2022-11-15T12:25:21;90.87;;;46.17;;
6135;SDS011;24008;42.664;23.372;2022-11-15T12:27:53;96.90;;;47.37;;
6135;SDS011;24008;42.664;23.372;2022-11-15T12:30:22;97.37;;;46.67;;
6135;SDS011;24008;42.664;23.372;2022-11-15T12:32:52;92.43;;;46.83;;
6135;SDS011;24008;42.664;23.372;2022-11-15T12:35:36;92.53;;;46.10;;
6135;SDS011;24008;42.664;23.372;2022-11-15T12:38:08;92.13;;;45.67;;
6135;SDS011;24008;42.664;23.372;2022-11-15T12:40:37;91.00;;;46.10;;
6135;SDS011;24008;42.664;23.372;2022-11-15T12:46:11;86.33;;;43.27;;
6135;SDS011;24008;42.664;23.372;2022-11-15T12:48:49;83.20;;;43.37;;
6135;SDS011;24008;42.664;23.372;2022-11-15T12:52:03;87.47;;;45.67;;
6135;SDS011;24008;42.664;23.372;2022-11-15T12:54:50;93.57;;;45.43;;
6135;SDS011;24008;42.664;23.372;2022-11-15T12:57:31;86.97;;;44.23;;
6135;SDS011;24008;42.664;23.372;2022-11-15T13:00:16;86.90;;;45.77;;
6135;SDS011;24008;42.664;23.372;2022-11-15T13:03:16;78.80;;;42.90;;
6135;SDS011;24008;42.664;23.372;2022-11-15T13:06:04;80.70;;;44.10;;
6135;SDS011;24008;42.664;23.372;2022-11-15T13:08:42;82.80;;;43.97;;
6135;SDS011;24008;42.664;23.372;2022-11-15T13:17:23;85.57;;;43.27;;
6135;SDS011;24008;42.664;23.372;2022-11-15T13:19:59;84.90;;;44.40;;
6135;SDS011;24008;42.664;23.372;2022-11-15T13:22:37;83.37;;;42.17;;
6135;SDS011;24008;42.664;23.372;2022-11-15T13:25:42;84.90;;;43.67;;
6135;SDS011;24008;42.664;23.372;2022-11-15T13:28:20;79.10;;;43.33;;
6135;SDS011;24008;42.664;23.372;2022-11-15T13:30:51;76.47;;;41.80;;
6135;SDS011;24008;42.664;23.372;2022-11-15T13:33:20;86.40;;;43.83;;
6135;SDS011;24008;42.664;23.372;2022-11-15T13:35:50;84.23;;;43.13;;
6135;SDS011;24008;42.664;23.372;2022-11-15T13:38:19;82.27;;;42.50;;
6135;SDS011;24008;42.664;23.372;2022-11-15T13:40:56;79.07;;;42.90;;
6135;SDS011;24008;42.664;23.372;2022-11-15T13:43:28;87.77;;;42.37;;
6135;SDS011;24008;42.664;23.372;2022-11-15T13:46:04;88.63;;;44.23;;
6135;SDS011;24008;42.664;23.372;2022-11-15T13:48:32;77.57;;;43.40;;
6135;SDS011;24008;42.664;23.372;2022-11-15T13:50:59;90.93;;;45.47;;
6135;SDS011;24008;42.664;23.372;2022-11-15T13:53:28;86.77;;;43.83;;
6135;SDS011;24008;42.664;23.372;2022-11-15T13:56:00;88.10;;;45.23;;
6135;SDS011;24008;42.664;23.372;2022-11-15T13:58:28;85.10;;;46.87;;
6135;SDS011;24008;42.664;23.372;2022-11-15T14:00:59;92.70;;;45.53;;
6135;SDS011;24008;42.664;23.372;2022-11-15T14:03:28;97.43;;;46.63;;
6135;SDS011;24008;42.664;23.372;2022-11-15T14:06:06;90.40;;;47.00;;
6135;SDS011;24008;42.664;23.372;2022-11-15T14:08:37;92.87;;;45.13;;
6135;SDS011;24008;42.664;23.372;2022-11-15T14:11:09;84.90;;;45.10;;
6135;SDS011;24008;42.664;23.372;2022-11-15T14:13:41;86.57;;;45.57;;
6135;SDS011;24008;42.664;23.372;2022-11-15T14:16:24;90.07;;;46.20;;
6135;SDS011;24008;42.664;23.372;2022-11-15T14:19:00;95.77;;;45.67;;
6135;SDS011;24008;42.664;23.372;2022-11-15T14:21:27;90.70;;;47.60;;
6135;SDS011;24008;42.664;23.372;2022-11-15T14:26:43;97.77;;;51.27;;
6135;SDS011;24008;42.664;23.372;2022-11-15T14:29:23;115.00;;;54.33;;
6135;SDS011;24008;42.664;23.372;2022-11-15T14:31:50;116.77;;;58.77;;
6135;SDS011;24008;42.664;23.372;2022-11-15T14:34:17;131.40;;;67.97;;
6135;SDS011;24008;42.664;23.372;2022-11-15T14:36:46;128.50;;;66.50;;
6135;SDS011;24008;42.664;23.372;2022-11-15T14:39:13;132.73;;;65.13;;
6135;SDS011;24008;42.664;23.372;2022-11-15T14:41:40;139.80;;;69.17;;
6135;SDS011;24008;42.664;23.372;2022-11-15T14:44:10;143.17;;;68.77;;
6135;SDS011;24008;42.664;23.372;2022-11-15T14:46:37;132.13;;;64.80;;
6135;SDS011;24008;42.664;23.372;2022-11-15T14:49:03;130.63;;;66.33;;
6135;SDS011;24008;42.664;23.372;2022-11-15T14:51:30;139.70;;;66.93;;
6135;SDS011;24008;42.664;23.372;2022-11-15T14:53:58;135.43;;;65.13;;
6135;SDS011;24008;42.664;23.372;2022-11-15T14:56:24;143.63;;;67.60;;
6135;SDS011;24008;42.664;23.372;2022-11-15T14:58:51;134.33;;;64.43;;